ADDS METAR Data INFO
IDs: Format: Raw Decoded Include TAF

Data at: 0857 UTC 19 Jun 2018

KEWK 190856Z AUTO 19013KT 10SM CLR 25/21 A2995 RMK AO2 SLP121 T02500206 55010
KEWK 190756Z AUTO 19013KT 10SM CLR 25/21 A2994 RMK AO2 SLP119 T02500206
KEWK 190656Z AUTO 17009KT 10SM CLR 25/21 A2996 RMK AO2 SLP126 T02500206
KEWK 190556Z AUTO 16008KT 10SM CLR 26/21 A2998 RMK AO2 SLP132 T02560206 10311 20256 53008
KEWK 190456Z AUTO 17012KT 10SM CLR 26/21 A2997 RMK AO2 SLP128 T02610206 403390228
KEWK 190356Z AUTO 17013KT 10SM CLR 27/21 A2996 RMK AO2 SLP126 T02670206
KEWK 190256Z AUTO 17014KT 10SM CLR 27/21 A2995 RMK AO2 SLP124 T02720211 50014
KEWK 190156Z AUTO 17013KT 10SM CLR 28/21 A2996 RMK AO2 SLP128 T02830211
KEWK 190056Z AUTO 17015KT 10SM FEW049 29/21 A2994 RMK AO2 SLP119 T02940206
KEWK 182356Z AUTO 17018G25KT 10SM FEW050 31/21 A2991 RMK AO2 LTG DSNT N AND NW SLP110 T03110211 10339 20311 56003
KEWK 182256Z AUTO 16019G24KT 10SM CLR 32/21 A2992 RMK AO2 PK WND 18027/2230 SLP112 T03170211
KEWK 182156Z AUTO 17020G26KT 10SM SCT050 33/21 A2991 RMK AO2 PK WND 16028/2135 SLP108 T03330211
KEWK 182056Z AUTO 18021G24KT 10SM FEW049 34/21 A2992 RMK AO2 SLP112 T03390211 58022
KEWK 181956Z AUTO 17020G25KT 10SM SCT047 BKN055 33/22 A2995 RMK AO2 SLP121 T03330217
KEWK 181856Z AUTO 17016G21KT 10SM BKN045 BKN055 33/22 A2997 RMK AO2 SLP130 T03280217
KEWK 181756Z AUTO 18017KT 10SM BKN043 BKN070 32/22 A2999 RMK AO2 SLP135 T03220217 10328 20228 58007
KEWK 181656Z AUTO 19015G21KT 10SM CLR 32/22 A3000 RMK AO2 SLP139 T03170217
KEWK 181556Z AUTO 20014G21KT 10SM OVC085 30/21 A3001 RMK AO2 SLP142 T03000211
KEWK 181456Z AUTO 19018G23KT 10SM CLR 29/22 A3001 RMK AO2 SLP143 T02940217 51007
KEWK 181356Z AUTO 19017KT 10SM CLR 28/21 A3001 RMK AO2 SLP143 T02780211
KEWK 181256Z AUTO 18012G20KT 10SM CLR 26/21 A3000 RMK AO2 SLP140 T02560211
KEWK 181056Z AUTO 16009KT 10SM CLR 23/20 A2998 RMK AO2 SLP133 T02280200
KEWK 180956Z AUTO 18011KT 10SM CLR 24/19 A2997 RMK AO2 SLP129 T02440194
KEWK 180856Z AUTO 17009KT 10SM CLR 25/19 A2997 RMK AO2 SLP129 T02500194 51005
KEWK 180756Z AUTO 18011KT 10SM CLR 26/19 A2997 RMK AO2 SLP128 T02560194
KEWK 180656Z AUTO 17010KT 10SM CLR 25/20 A2996 RMK AO2 SLP127 T02500200
KEWK 180556Z AUTO 16012KT 10SM CLR 26/20 A2996 RMK AO2 SLP125 T02560200 10322 20256 51004
KEWK 180456Z AUTO 16013KT 10SM CLR 26/20 A2995 RMK AO2 SLP122 T02610200 403500244
KEWK 180356Z AUTO 17014KT 10SM CLR 27/20 A2996 RMK AO2 SLP124 T02720200
KEWK 180256Z AUTO 17015G21KT 10SM CLR 28/20 A2994 RMK AO2 SLP120 T02780200 51011
KEWK 180156Z AUTO 16016G21KT 10SM CLR 29/19 A2994 RMK AO2 SLP118 T02890194
KEWK 180056Z AUTO 17017G25KT 10SM CLR 31/20 A2993 RMK AO2 SLP115 T03060200
KEWK 172356Z AUTO 17016G23KT 10SM FEW060 32/19 A2991 RMK AO2 PK WND 16027/2305 SLP109 T03220194 10350 20322 53000
KEWK 172256Z AUTO 17021G29KT 10SM CLR 33/18 A2990 RMK AO2 PK WND 19033/2219 SLP105 T03330183
KEWK 172156Z AUTO 18018KT 10SM CLR 34/18 A2990 RMK AO2 PK WND 16030/2145 SLP104 T03440178